createdAt,value
2022-12-06T00:02:04.016Z,99.90
2022-12-06T00:04:49.889Z,99.90
2022-12-06T00:07:37.505Z,99.90
2022-12-06T00:10:23.738Z,99.90
2022-12-06T00:13:09.724Z,99.90
2022-12-06T00:15:55.680Z,99.90
2022-12-06T00:18:42.899Z,99.90
2022-12-06T00:21:31.458Z,99.90
2022-12-06T00:24:20.473Z,99.90
2022-12-06T00:27:06.170Z,99.90
2022-12-06T00:29:51.950Z,99.90
2022-12-06T00:32:38.264Z,99.90
2022-12-06T00:35:24.338Z,99.90
2022-12-06T00:38:10.418Z,99.90
2022-12-06T00:41:01.851Z,99.90
2022-12-06T00:43:48.271Z,99.90
2022-12-06T00:46:35.592Z,99.90
2022-12-06T00:49:21.181Z,99.90
2022-12-06T00:52:07.432Z,99.90
2022-12-06T00:54:53.602Z,99.90
2022-12-06T00:57:40.827Z,99.90
2022-12-06T01:00:27.456Z,99.90
2022-12-06T01:03:13.447Z,99.90
2022-12-06T01:06:04.212Z,99.90
2022-12-06T01:08:50.480Z,99.90
2022-12-06T01:11:37.535Z,99.90
2022-12-06T01:14:24.946Z,99.90
2022-12-06T01:17:10.865Z,99.90
2022-12-06T01:19:56.586Z,99.90
2022-12-06T01:22:42.467Z,99.90
2022-12-06T01:25:30.615Z,99.90
2022-12-06T01:28:18.985Z,99.90
2022-12-06T01:31:09.393Z,99.90
2022-12-06T01:33:55.004Z,99.90
2022-12-06T01:36:40.453Z,99.90
2022-12-06T01:39:26.589Z,99.90
2022-12-06T01:42:13.352Z,99.90
2022-12-06T01:44:59.486Z,99.90
2022-12-06T01:47:46.899Z,99.90
2022-12-06T01:50:32.962Z,99.90
2022-12-06T01:53:25.298Z,99.90
2022-12-06T01:56:12.640Z,99.90
2022-12-06T01:58:59.767Z,99.90
2022-12-06T02:01:46.797Z,99.90
2022-12-06T02:04:34.791Z,99.90
2022-12-06T02:07:22.288Z,99.90
2022-12-06T02:10:09.152Z,99.90
2022-12-06T02:12:57.576Z,99.90
2022-12-06T02:15:52.011Z,99.90
2022-12-06T02:18:47.016Z,99.90
2022-12-06T02:21:42.989Z,99.90
2022-12-06T02:24:43.051Z,99.90
2022-12-06T02:27:50.048Z,99.90
2022-12-06T02:30:58.447Z,99.90
2022-12-06T02:33:48.762Z,99.90
2022-12-06T02:36:40.501Z,99.90
2022-12-06T02:39:34.578Z,99.90
2022-12-06T02:42:24.608Z,99.90
2022-12-06T02:45:14.268Z,99.90
2022-12-06T02:48:04.192Z,99.90
2022-12-06T02:50:56.327Z,99.90
2022-12-06T02:53:45.704Z,99.90
2022-12-06T02:56:33.017Z,99.90
2022-12-06T02:59:18.468Z,99.90
2022-12-06T03:02:09.675Z,99.90
2022-12-06T03:05:07.093Z,99.90
2022-12-06T03:07:53.604Z,99.90
2022-12-06T03:10:45.150Z,99.90
2022-12-06T03:13:35.876Z,99.90
2022-12-06T03:16:28.300Z,99.90
2022-12-06T03:19:19.126Z,99.90
2022-12-06T03:22:09.253Z,99.90
2022-12-06T03:24:56.639Z,99.90
2022-12-06T03:27:43.725Z,99.90
2022-12-06T03:30:33.047Z,99.90
2022-12-06T03:33:22.705Z,99.90
2022-12-06T03:36:10.657Z,99.90
2022-12-06T03:39:00.264Z,99.90
2022-12-06T03:41:51.389Z,99.90
2022-12-06T03:44:37.685Z,99.90
2022-12-06T03:47:31.358Z,99.90
2022-12-06T03:50:20.830Z,99.90
2022-12-06T03:53:06.662Z,99.90
2022-12-06T03:55:54.308Z,99.90
2022-12-06T03:58:40.231Z,99.90
2022-12-06T04:01:25.783Z,99.90
2022-12-06T04:04:11.691Z,99.90
2022-12-06T04:06:57.776Z,99.90
2022-12-06T04:10:02.760Z,99.90
2022-12-06T04:13:01.724Z,99.90
2022-12-06T04:15:47.570Z,99.90
2022-12-06T04:18:32.924Z,99.90
2022-12-06T04:21:36.460Z,99.90
2022-12-06T04:24:22.161Z,99.90
2022-12-06T04:27:26.466Z,99.90
2022-12-06T04:30:32.431Z,99.90
2022-12-06T04:33:37.004Z,99.90
2022-12-06T04:36:41.116Z,99.90
2022-12-06T04:39:27.142Z,99.90
2022-12-06T04:42:32.126Z,99.90
2022-12-06T04:45:18.940Z,99.90
2022-12-06T04:48:05.259Z,99.90
2022-12-06T04:50:51.513Z,99.90
2022-12-06T04:53:37.325Z,99.90
2022-12-06T04:56:22.794Z,99.90
2022-12-06T04:59:08.278Z,99.90
2022-12-06T05:01:56.450Z,99.90
2022-12-06T05:04:42.265Z,99.90
2022-12-06T05:07:28.317Z,99.90
2022-12-06T05:10:14.251Z,99.90
2022-12-06T05:13:00.867Z,99.90
2022-12-06T05:15:50.632Z,99.90
2022-12-06T05:18:38.046Z,99.90
2022-12-06T05:21:24.963Z,99.90
2022-12-06T05:24:10.578Z,99.90
2022-12-06T05:26:56.173Z,99.90
2022-12-06T05:29:42.274Z,99.90
2022-12-06T05:32:28.033Z,99.90
2022-12-06T05:35:15.332Z,99.90
2022-12-06T05:38:00.836Z,99.90
2022-12-06T05:40:46.659Z,99.90
2022-12-06T05:43:32.406Z,99.90
2022-12-06T05:46:18.485Z,99.90
2022-12-06T05:49:04.614Z,99.90
2022-12-06T05:51:51.581Z,99.90
2022-12-06T05:54:37.110Z,99.90
2022-12-06T05:57:22.550Z,99.90
2022-12-06T06:00:09.637Z,99.90
2022-12-06T06:02:55.441Z,99.90
2022-12-06T06:05:46.024Z,99.90
2022-12-06T06:08:33.283Z,99.90
2022-12-06T06:11:18.964Z,99.90
2022-12-06T06:14:04.767Z,99.90
2022-12-06T06:16:52.271Z,99.90
2022-12-06T06:19:38.261Z,99.90
2022-12-06T06:22:24.598Z,99.90
2022-12-06T06:25:11.697Z,99.90
2022-12-06T06:27:57.368Z,99.90
2022-12-06T06:30:43.093Z,99.90
2022-12-06T06:33:29.122Z,99.90
2022-12-06T06:36:14.890Z,99.90
2022-12-06T06:39:00.522Z,99.90
2022-12-06T06:41:47.852Z,99.90
2022-12-06T06:44:33.557Z,99.90
2022-12-06T06:47:19.253Z,99.90
2022-12-06T06:50:05.719Z,99.90
2022-12-06T06:52:51.427Z,99.90
2022-12-06T06:55:37.611Z,99.90
2022-12-06T06:58:25.516Z,99.90
2022-12-06T07:01:17.512Z,99.90
2022-12-06T07:04:03.182Z,99.90
2022-12-06T07:06:48.987Z,99.90
2022-12-06T07:09:35.117Z,99.90
2022-12-06T07:12:20.928Z,99.90
2022-12-06T07:15:09.492Z,99.90
2022-12-06T07:17:55.234Z,99.90
2022-12-06T07:20:41.270Z,99.90
2022-12-06T07:23:27.081Z,99.90
2022-12-06T07:26:14.160Z,99.90
2022-12-06T07:29:00.573Z,99.90
2022-12-06T07:31:47.441Z,99.90
2022-12-06T07:34:33.582Z,99.90
2022-12-06T07:37:20.578Z,99.90
2022-12-06T07:40:08.118Z,99.90
2022-12-06T07:43:12.502Z,99.90
2022-12-06T07:45:58.156Z,99.90
2022-12-06T07:48:45.565Z,99.90
2022-12-06T07:51:31.996Z,99.90
2022-12-06T07:54:18.123Z,99.90
2022-12-06T07:57:04.122Z,99.90
2022-12-06T07:59:49.768Z,99.90
2022-12-06T08:02:35.810Z,99.90
2022-12-06T08:05:22.764Z,99.90
2022-12-06T08:08:08.447Z,99.90
2022-12-06T08:10:54.394Z,99.90
2022-12-06T08:13:40.130Z,99.90
2022-12-06T08:16:26.219Z,99.90
2022-12-06T08:19:12.405Z,99.90
2022-12-06T08:21:59.587Z,99.90
2022-12-06T08:24:45.220Z,99.90
2022-12-06T08:27:30.828Z,99.90
2022-12-06T08:30:17.265Z,99.90
2022-12-06T08:33:02.964Z,99.90
2022-12-06T08:35:48.936Z,99.90
2022-12-06T08:38:36.423Z,99.90
2022-12-06T08:41:41.772Z,99.90
2022-12-06T08:44:28.821Z,99.90
2022-12-06T08:47:14.695Z,99.90
2022-12-06T08:50:00.782Z,99.90
2022-12-06T08:52:46.702Z,99.90
2022-12-06T08:55:33.982Z,99.90
2022-12-06T08:58:19.620Z,99.90
2022-12-06T09:01:11.835Z,99.90
2022-12-06T09:03:59.322Z,99.90
2022-12-06T09:06:46.414Z,99.90
2022-12-06T09:09:32.119Z,99.90
2022-12-06T09:12:19.216Z,99.90
2022-12-06T09:15:06.064Z,99.90
2022-12-06T09:17:52.126Z,99.90
2022-12-06T09:20:39.932Z,99.90
2022-12-06T09:23:25.850Z,99.90
2022-12-06T09:26:12.163Z,99.90
2022-12-06T09:28:59.740Z,99.90
2022-12-06T09:31:45.404Z,99.90
2022-12-06T09:34:31.537Z,99.90
2022-12-06T09:37:17.511Z,99.90
2022-12-06T09:40:11.891Z,99.90
2022-12-06T09:43:08.648Z,99.90
2022-12-06T09:46:14.824Z,99.90
2022-12-06T09:49:18.294Z,98.90
2022-12-06T09:52:22.358Z,97.60
2022-12-06T09:55:22.853Z,95.30
2022-12-06T09:58:18.615Z,94.50
2022-12-06T10:01:16.574Z,93.10
2022-12-06T10:04:21.453Z,92.20
2022-12-06T10:07:15.542Z,91.00
2022-12-06T10:10:11.905Z,90.20
2022-12-06T10:13:06.804Z,88.70
2022-12-06T10:16:05.076Z,86.60
2022-12-06T10:19:03.366Z,84.40
2022-12-06T10:22:01.358Z,83.60
2022-12-06T10:24:57.822Z,83.70
2022-12-06T10:27:50.252Z,84.10
2022-12-06T10:30:44.753Z,83.50
2022-12-06T10:33:38.567Z,82.70
2022-12-06T10:36:40.958Z,81.50
2022-12-06T10:39:31.981Z,80.30
2022-12-06T10:42:29.734Z,78.70
2022-12-06T10:45:42.295Z,77.10
2022-12-06T10:48:35.338Z,76.90
2022-12-06T10:51:26.477Z,76.20
2022-12-06T10:54:23.935Z,75.90
2022-12-06T10:57:16.924Z,77.10
2022-12-06T11:00:15.579Z,77.30
2022-12-06T11:03:11.132Z,77.00
2022-12-06T11:06:01.577Z,76.70
2022-12-06T11:08:52.004Z,74.30
2022-12-06T11:11:40.569Z,73.90
2022-12-06T11:14:33.134Z,77.00
2022-12-06T11:17:22.247Z,79.00
2022-12-06T11:20:21.370Z,81.50
2022-12-06T11:23:12.974Z,85.70
2022-12-06T11:26:18.136Z,88.50
2022-12-06T11:29:11.301Z,91.40
2022-12-06T11:32:01.499Z,92.00
2022-12-06T11:34:50.572Z,92.50
2022-12-06T11:37:41.449Z,92.60
2022-12-06T11:40:32.835Z,93.70
2022-12-06T11:43:24.252Z,94.10
2022-12-06T11:46:12.846Z,94.80
2022-12-06T11:49:09.631Z,95.50
2022-12-06T11:51:57.746Z,95.90
2022-12-06T11:54:50.066Z,96.20
2022-12-06T11:57:40.895Z,96.50
2022-12-06T12:00:27.474Z,96.80
2022-12-06T12:03:28.553Z,97.00
2022-12-06T12:06:21.787Z,97.70
2022-12-06T12:09:19.494Z,97.80
2022-12-06T12:12:14.577Z,97.70
2022-12-06T12:15:00.667Z,97.90
2022-12-06T12:17:50.158Z,97.90
2022-12-06T12:20:39.689Z,97.90
2022-12-06T12:23:29.761Z,98.20
2022-12-06T12:26:18.173Z,98.50
2022-12-06T12:29:14.579Z,98.50
2022-12-06T12:32:09.489Z,99.10
2022-12-06T12:34:55.955Z,99.30
2022-12-06T12:37:43.782Z,98.70
2022-12-06T12:40:35.523Z,98.60
2022-12-06T12:43:23.392Z,98.60
2022-12-06T12:46:19.657Z,98.90
2022-12-06T12:49:23.358Z,99.00
2022-12-06T12:52:28.659Z,98.90
2022-12-06T12:55:18.958Z,98.70
2022-12-06T12:58:10.751Z,98.60
2022-12-06T13:01:03.113Z,98.80
2022-12-06T13:03:52.972Z,99.00
2022-12-06T13:06:47.243Z,98.90
2022-12-06T13:09:40.696Z,98.80
2022-12-06T13:12:30.943Z,99.30
2022-12-06T13:15:19.424Z,99.50
2022-12-06T13:18:11.497Z,99.30
2022-12-06T13:21:00.713Z,99.50
2022-12-06T13:23:48.388Z,99.90
2022-12-06T13:26:38.265Z,99.50
2022-12-06T13:29:32.421Z,99.30
2022-12-06T13:32:22.263Z,99.80
2022-12-06T13:35:18.961Z,99.80
2022-12-06T13:38:26.625Z,99.90
2022-12-06T13:41:14.514Z,99.90
2022-12-06T13:44:00.169Z,99.90
2022-12-06T13:46:47.258Z,99.90
2022-12-06T13:49:48.619Z,99.90
2022-12-06T13:53:02.298Z,99.90
2022-12-06T13:55:59.706Z,99.90
2022-12-06T13:58:54.416Z,99.90
2022-12-06T14:01:42.992Z,99.90
2022-12-06T14:07:33.847Z,99.90
2022-12-06T14:10:19.845Z,99.90
2022-12-06T14:13:05.409Z,99.90
2022-12-06T14:15:52.361Z,99.90
2022-12-06T14:18:41.960Z,99.90
2022-12-06T14:21:34.753Z,99.90
2022-12-06T14:24:26.298Z,99.90
2022-12-06T14:27:12.777Z,99.90
2022-12-06T14:30:04.596Z,99.90
2022-12-06T14:32:52.455Z,99.90
2022-12-06T14:35:40.206Z,99.90
2022-12-06T14:38:29.084Z,99.90
2022-12-06T14:41:36.819Z,99.90
2022-12-06T14:44:28.743Z,99.90
2022-12-06T14:47:15.895Z,99.90
2022-12-06T14:50:21.281Z,99.90
2022-12-06T14:53:11.600Z,99.90
2022-12-06T14:56:02.130Z,99.90
2022-12-06T14:58:48.820Z,99.90
2022-12-06T15:01:34.685Z,99.90
2022-12-06T15:04:26.558Z,99.90
2022-12-06T15:07:48.010Z,99.90
2022-12-06T15:10:34.726Z,99.90
2022-12-06T15:13:23.303Z,99.90
2022-12-06T15:16:15.162Z,99.90
2022-12-06T15:19:01.432Z,99.90
2022-12-06T15:21:50.701Z,99.90
2022-12-06T15:24:36.740Z,99.90
2022-12-06T15:27:23.947Z,99.90
2022-12-06T15:30:13.472Z,99.90
2022-12-06T15:32:59.291Z,99.90
2022-12-06T15:35:45.357Z,99.90
2022-12-06T15:38:31.242Z,99.90
2022-12-06T15:41:18.487Z,99.90
2022-12-06T15:44:04.015Z,99.90
2022-12-06T15:46:51.378Z,99.90
2022-12-06T15:49:38.060Z,99.90
2022-12-06T15:52:24.315Z,99.90
2022-12-06T15:55:16.335Z,99.90
2022-12-06T15:58:02.203Z,99.90
2022-12-06T16:00:48.171Z,99.90
2022-12-06T16:03:35.706Z,99.90
2022-12-06T16:06:24.346Z,99.90
2022-12-06T16:09:10.688Z,99.90
2022-12-06T16:11:56.623Z,99.90
2022-12-06T16:14:42.495Z,99.90
2022-12-06T16:17:28.163Z,99.90
2022-12-06T16:20:30.879Z,99.90
2022-12-06T16:24:04.716Z,99.90
2022-12-06T16:26:44.771Z,99.90
2022-12-06T16:29:31.107Z,99.90
2022-12-06T16:32:16.640Z,99.90
2022-12-06T16:35:02.511Z,99.90
2022-12-06T16:37:49.742Z,99.90
2022-12-06T16:40:35.657Z,99.90
2022-12-06T16:43:21.779Z,99.90
2022-12-06T16:46:27.566Z,99.90
2022-12-06T16:49:44.756Z,99.90
2022-12-06T16:52:22.283Z,99.90
2022-12-06T16:55:10.276Z,99.90
2022-12-06T16:57:56.474Z,99.90
2022-12-06T17:00:42.286Z,99.90
2022-12-06T17:03:28.195Z,99.90
2022-12-06T17:06:14.017Z,99.90
2022-12-06T17:09:00.337Z,99.90
2022-12-06T17:12:02.867Z,99.90
2022-12-06T17:14:48.391Z,99.90
2022-12-06T17:17:33.945Z,99.90
2022-12-06T17:20:20.722Z,99.90
2022-12-06T17:23:06.542Z,99.90
2022-12-06T17:25:57.011Z,99.90
2022-12-06T17:28:44.467Z,99.90
2022-12-06T17:31:30.413Z,99.90
2022-12-06T17:34:16.918Z,99.90
2022-12-06T17:37:02.784Z,99.90
2022-12-06T17:39:48.628Z,99.90
2022-12-06T17:42:52.817Z,99.90
2022-12-06T17:45:40.533Z,99.90
2022-12-06T17:48:28.655Z,99.90
2022-12-06T17:51:17.393Z,99.90
2022-12-06T17:54:08.927Z,99.90
2022-12-06T17:56:56.168Z,99.90
2022-12-06T17:59:41.895Z,99.90
2022-12-06T18:02:28.954Z,99.90
2022-12-06T18:05:14.632Z,99.90
2022-12-06T18:08:00.799Z,99.90
2022-12-06T18:10:46.219Z,99.90
2022-12-06T18:13:31.958Z,99.90
2022-12-06T18:16:18.873Z,99.90
2022-12-06T18:19:08.856Z,99.90
2022-12-06T18:21:54.830Z,99.90
2022-12-06T18:24:40.679Z,99.90
2022-12-06T18:27:26.389Z,99.90
2022-12-06T18:30:12.462Z,99.90
2022-12-06T18:33:00.385Z,99.90
2022-12-06T18:35:50.140Z,99.90
2022-12-06T18:38:36.596Z,99.90
2022-12-06T18:41:22.700Z,99.90
2022-12-06T18:44:09.536Z,99.90
2022-12-06T18:46:54.845Z,99.90
2022-12-06T18:49:41.084Z,99.90
2022-12-06T18:52:28.464Z,99.90
2022-12-06T18:55:14.063Z,99.90
2022-12-06T18:57:59.879Z,99.90
2022-12-06T19:00:45.687Z,99.90
2022-12-06T19:03:31.157Z,99.90
2022-12-06T19:06:18.100Z,99.90
2022-12-06T19:09:06.445Z,99.90
2022-12-06T19:11:52.004Z,99.90
2022-12-06T19:14:37.736Z,99.90
2022-12-06T19:17:23.389Z,99.90
2022-12-06T19:20:09.654Z,99.90
2022-12-06T19:22:55.197Z,99.90
2022-12-06T19:25:42.647Z,99.90
2022-12-06T19:28:28.237Z,99.90
2022-12-06T19:31:14.371Z,99.90
2022-12-06T19:34:00.227Z,99.90
2022-12-06T19:36:45.923Z,99.90
2022-12-06T19:39:32.031Z,99.90
2022-12-06T19:42:37.868Z,99.90
2022-12-06T19:45:24.268Z,99.90
2022-12-06T19:48:10.265Z,99.90
2022-12-06T19:50:56.357Z,99.90
2022-12-06T19:53:42.633Z,99.90
2022-12-06T19:56:28.850Z,99.90
2022-12-06T19:59:16.670Z,99.90
2022-12-06T20:02:03.290Z,99.90
2022-12-06T20:04:49.660Z,99.90
2022-12-06T20:07:35.122Z,99.90
2022-12-06T20:10:20.823Z,99.90
2022-12-06T20:15:14.241Z,99.90
2022-12-06T20:17:59.772Z,99.90
2022-12-06T20:20:46.781Z,99.90
2022-12-06T20:23:32.241Z,99.90
2022-12-06T20:26:18.407Z,99.90
2022-12-06T20:29:04.855Z,99.90
2022-12-06T20:31:52.463Z,99.90
2022-12-06T20:34:37.992Z,99.90
2022-12-06T20:37:23.750Z,99.90
2022-12-06T20:40:10.829Z,99.90
2022-12-06T20:42:56.285Z,99.90
2022-12-06T20:45:42.059Z,99.90
2022-12-06T20:48:29.526Z,99.90
2022-12-06T20:51:18.550Z,99.90
2022-12-06T20:54:06.321Z,99.90
2022-12-06T20:56:53.441Z,99.90
2022-12-06T20:59:40.137Z,99.90
2022-12-06T21:02:26.067Z,99.90
2022-12-06T21:05:19.009Z,99.90
2022-12-06T21:08:05.205Z,99.90
2022-12-06T21:11:21.145Z,99.90
2022-12-06T21:13:59.134Z,99.90
2022-12-06T21:16:45.589Z,99.90
2022-12-06T21:19:31.305Z,99.90
2022-12-06T21:22:18.693Z,99.90
2022-12-06T21:25:14.045Z,99.90
2022-12-06T21:28:00.015Z,99.90
2022-12-06T21:30:49.987Z,99.90
2022-12-06T21:33:36.256Z,99.90
2022-12-06T21:36:22.610Z,99.90
2022-12-06T21:39:10.202Z,99.90
2022-12-06T21:41:55.896Z,99.90
2022-12-06T21:44:41.783Z,99.90
2022-12-06T21:47:27.387Z,99.90
2022-12-06T21:50:12.798Z,99.90
2022-12-06T21:52:58.513Z,99.90
2022-12-06T21:55:45.637Z,99.90
2022-12-06T21:58:31.572Z,99.90
2022-12-06T22:01:18.565Z,99.90
2022-12-06T22:04:04.757Z,99.90
2022-12-06T22:06:50.799Z,99.90
2022-12-06T22:09:36.353Z,99.90
2022-12-06T22:12:23.469Z,99.90
2022-12-06T22:15:09.840Z,99.90
2022-12-06T22:17:55.711Z,99.90
2022-12-06T22:20:41.061Z,99.90
2022-12-06T22:23:26.964Z,99.90
2022-12-06T22:26:14.984Z,99.90
2022-12-06T22:29:02.181Z,99.90
2022-12-06T22:31:47.736Z,99.90
2022-12-06T22:34:34.035Z,99.90
2022-12-06T22:37:22.888Z,99.90
2022-12-06T22:40:11.770Z,99.90
2022-12-06T22:42:57.632Z,99.90
2022-12-06T22:45:44.866Z,99.90
2022-12-06T22:48:31.200Z,99.90
2022-12-06T22:51:19.966Z,99.90
2022-12-06T22:54:09.648Z,99.90
2022-12-06T22:56:56.874Z,99.90
2022-12-06T22:59:42.707Z,99.90
2022-12-06T23:02:30.307Z,99.90
2022-12-06T23:05:15.912Z,99.90
2022-12-06T23:08:01.924Z,99.90
2022-12-06T23:10:47.827Z,99.90
2022-12-06T23:13:34.606Z,99.90
2022-12-06T23:16:23.242Z,99.90
2022-12-06T23:19:11.194Z,99.90
2022-12-06T23:21:56.915Z,99.90
2022-12-06T23:24:42.522Z,99.90
2022-12-06T23:27:28.064Z,99.90
2022-12-06T23:30:14.082Z,99.90
2022-12-06T23:33:00.154Z,99.90
2022-12-06T23:35:47.378Z,99.90
2022-12-06T23:38:33.528Z,99.90
2022-12-06T23:41:21.028Z,99.90
2022-12-06T23:44:07.556Z,99.90
2022-12-06T23:46:53.771Z,99.90
2022-12-06T23:49:39.576Z,99.90
2022-12-06T23:52:27.033Z,99.90
2022-12-06T23:55:12.681Z,99.90
2022-12-06T23:57:58.588Z,99.90
